Time;durP1;ratioP1;P1;durP2;ratioP2;P2;SDS_P1;SDS_P2;PMS_P1;PMS_P2;Temp;Humidity;BMP_temperature;BMP_pressure;BME280_temperature;BME280_humidity;BME280_pressure;Samples;Min_cycle;Max_cycle;Signal;HPM_P1;HPM_P2
2023/06/18 00:01:02;;;;;;;3.95;3.10;;;13.90;99.90;;;;;;5031718;28;20021;-75
2023/06/18 00:03:28;;;;;;;4.28;2.88;;;13.90;99.90;;;;;;5030869;28;20510;-76
2023/06/18 00:05:54;;;;;;;4.68;3.40;;;13.80;99.90;;;;;;5032959;28;20030;-76
2023/06/18 00:08:20;;;;;;;5.20;3.35;;;13.70;99.90;;;;;;5031560;28;20526;-76
2023/06/18 00:10:46;;;;;;;5.72;2.90;;;13.70;99.90;;;;;;5033125;28;20029;-76
2023/06/18 00:13:11;;;;;;;4.07;2.88;;;13.70;99.90;;;;;;5029287;28;20444;-76
2023/06/18 00:15:37;;;;;;;4.10;3.20;;;13.70;99.90;;;;;;5030416;28;20049;-76
2023/06/18 00:18:03;;;;;;;4.47;3.20;;;13.70;99.90;;;;;;5031549;28;20045;-76
2023/06/18 00:20:28;;;;;;;4.68;3.03;;;13.60;99.90;;;;;;5032419;28;20445;-75
2023/06/18 00:22:54;;;;;;;5.57;2.95;;;13.60;99.90;;;;;;5032057;28;20052;-76
2023/06/18 00:25:20;;;;;;;4.30;2.65;;;13.50;99.90;;;;;;5031542;28;20101;-76
2023/06/18 00:27:46;;;;;;;3.45;2.75;;;13.50;99.90;;;;;;5029981;28;20033;-76
2023/06/18 00:30:13;;;;;;;4.55;3.08;;;13.50;99.90;;;;;;5031482;28;20029;-76
2023/06/18 00:32:41;;;;;;;3.88;3.25;;;13.40;99.90;;;;;;5031303;28;20063;-76
2023/06/18 00:35:06;;;;;;;5.13;3.33;;;13.50;99.90;;;;;;5030446;28;20029;-77
2023/06/18 00:37:32;;;;;;;4.20;2.72;;;13.40;99.90;;;;;;5033015;28;20026;-77
2023/06/18 00:39:58;;;;;;;4.57;3.03;;;13.20;99.90;;;;;;5035426;28;20017;-77
2023/06/18 00:42:24;;;;;;;9.15;3.67;;;13.20;99.90;;;;;;5035325;28;20135;-77
2023/06/18 00:44:49;;;;;;;4.50;3.40;;;13.20;99.90;;;;;;5033927;28;20393;-76
2023/06/18 00:47:17;;;;;;;4.53;3.35;;;13.20;99.90;;;;;;5033404;28;20036;-77
2023/06/18 00:49:43;;;;;;;4.63;2.97;;;13.20;99.90;;;;;;5033782;28;20071;-77
2023/06/18 00:52:14;;;;;;;5.55;3.53;;;13.20;99.90;;;;;;5034835;28;20079;-77
2023/06/18 00:54:45;;;;;;;5.05;3.30;;;13.30;99.90;;;;;;5034876;28;20086;-76
2023/06/18 00:57:17;;;;;;;3.60;3.10;;;13.20;99.90;;;;;;5033151;28;20033;-77
2023/06/18 00:59:43;;;;;;;6.70;3.28;;;13.20;99.90;;;;;;5035541;28;20467;-77
2023/06/18 01:02:09;;;;;;;4.15;3.05;;;13.20;99.90;;;;;;5034037;28;20044;-77
2023/06/18 01:04:37;;;;;;;3.88;2.78;;;13.10;99.90;;;;;;5035691;28;20522;-77
2023/06/18 01:07:04;;;;;;;4.82;3.33;;;13.00;99.90;;;;;;5034528;28;20466;-77
2023/06/18 01:09:30;;;;;;;6.53;3.10;;;13.00;99.90;;;;;;5034321;28;20522;-77
2023/06/18 01:12:00;;;;;;;4.40;3.47;;;12.90;99.90;;;;;;5033472;28;20087;-77
2023/06/18 01:14:28;;;;;;;4.55;3.72;;;12.90;99.90;;;;;;5034543;28;20025;-76
2023/06/18 01:16:57;;;;;;;4.68;3.30;;;12.90;99.90;;;;;;5033106;28;20022;-77
2023/06/18 01:19:33;;;;;;;5.55;3.45;;;12.80;99.90;;;;;;5034638;28;20018;-77
2023/06/18 01:22:06;;;;;;;4.55;3.75;;;12.80;99.90;;;;;;5033475;28;20375;-76
2023/06/18 01:24:36;;;;;;;4.93;3.40;;;12.80;99.90;;;;;;5034283;28;20449;-77
2023/06/18 01:27:03;;;;;;;4.97;3.10;;;12.80;99.90;;;;;;5033612;28;20528;-77
2023/06/18 01:29:30;;;;;;;7.88;3.72;;;12.90;99.90;;;;;;5033957;28;20025;-77
2023/06/18 01:31:56;;;;;;;4.07;3.10;;;12.90;99.90;;;;;;5034365;28;20554;-76
2023/06/18 01:34:24;;;;;;;3.97;3.13;;;12.90;99.90;;;;;;5033791;28;20116;-76
2023/06/18 01:37:09;;;;;;;6.25;3.45;;;12.80;99.90;;;;;;5034449;28;20018;-76
2023/06/18 01:40:01;;;;;;;6.63;3.67;;;12.70;99.90;;;;;;5034864;28;20092;-76
2023/06/18 01:42:31;;;;;;;5.40;3.85;;;12.50;99.90;;;;;;5034454;28;20017;-76
2023/06/18 01:45:11;;;;;;;4.75;3.60;;;12.60;99.90;;;;;;5034640;28;20021;-76
2023/06/18 01:47:38;;;;;;;5.68;3.63;;;12.60;99.90;;;;;;5033622;28;20025;-77
2023/06/18 01:50:06;;;;;;;4.80;3.95;;;12.50;99.90;;;;;;5033890;28;20033;-76
2023/06/18 01:52:37;;;;;;;4.97;3.35;;;12.50;99.90;;;;;;5032789;28;20053;-76
2023/06/18 01:55:03;;;;;;;4.82;3.92;;;12.50;99.90;;;;;;5034148;28;20026;-76
2023/06/18 01:57:31;;;;;;;6.85;3.78;;;12.50;99.90;;;;;;5033501;28;20100;-77
2023/06/18 01:59:56;;;;;;;6.20;3.72;;;12.60;99.90;;;;;;5033568;28;20098;-76
2023/06/18 02:02:22;;;;;;;5.63;3.38;;;12.60;99.90;;;;;;5033894;28;20065;-77
2023/06/18 02:04:48;;;;;;;6.47;3.92;;;12.60;99.90;;;;;;5033129;28;20071;-77
2023/06/18 02:07:14;;;;;;;7.32;3.90;;;12.50;99.90;;;;;;5031870;28;20144;-75
2023/06/18 02:09:40;;;;;;;5.50;3.72;;;12.40;99.90;;;;;;5032875;28;20033;-77
2023/06/18 02:12:06;;;;;;;3.95;3.33;;;12.40;99.90;;;;;;5033603;28;20029;-77
2023/06/18 02:14:32;;;;;;;7.53;3.22;;;12.30;99.90;;;;;;5031656;28;20022;-77
2023/06/18 02:16:59;;;;;;;3.83;3.15;;;12.30;99.90;;;;;;5031677;28;20025;-77
2023/06/18 02:19:25;;;;;;;4.65;2.97;;;12.40;99.90;;;;;;5032089;28;20025;-76
2023/06/18 02:21:50;;;;;;;9.13;3.97;;;12.40;99.90;;;;;;5032984;28;20021;-76
2023/06/18 02:24:16;;;;;;;4.97;3.95;;;12.40;99.90;;;;;;5033852;28;20496;-77
2023/06/18 02:26:42;;;;;;;5.70;3.60;;;12.30;99.90;;;;;;5032627;28;20033;-77
2023/06/18 02:29:08;;;;;;;4.30;3.33;;;12.40;99.90;;;;;;5032612;28;20025;-77
2023/06/18 02:31:33;;;;;;;6.45;4.75;;;12.30;99.90;;;;;;5032627;28;20025;-77
2023/06/18 02:33:59;;;;;;;8.43;4.80;;;12.30;99.90;;;;;;5033229;28;20029;-77
2023/06/18 02:36:24;;;;;;;8.07;3.95;;;12.40;99.90;;;;;;5031095;28;20505;-77
2023/06/18 02:38:52;;;;;;;6.40;3.70;;;12.40;99.90;;;;;;5032496;28;20036;-77
2023/06/18 02:41:19;;;;;;;5.90;4.00;;;12.30;99.90;;;;;;5031937;28;20021;-77
2023/06/18 02:43:49;;;;;;;6.65;3.92;;;12.40;99.90;;;;;;5032434;28;20039;-77
2023/06/18 02:46:18;;;;;;;4.75;3.55;;;12.30;99.90;;;;;;5032107;28;20021;-77
2023/06/18 02:48:44;;;;;;;5.40;4.00;;;12.30;99.90;;;;;;5032189;28;20414;-77
2023/06/18 02:51:10;;;;;;;6.93;3.53;;;12.20;99.90;;;;;;5031126;28;20037;-77
2023/06/18 02:53:36;;;;;;;6.63;3.92;;;12.20;99.90;;;;;;5030817;28;20511;-77
2023/06/18 02:56:03;;;;;;;10.88;4.88;;;12.20;99.90;;;;;;5030910;28;20121;-77
2023/06/18 02:58:28;;;;;;;5.13;3.60;;;12.10;99.90;;;;;;5030724;28;20053;-77
2023/06/18 03:00:59;;;;;;;7.45;4.38;;;12.10;99.90;;;;;;5031461;28;20060;-77
2023/06/18 03:03:26;;;;;;;4.93;3.75;;;12.00;99.90;;;;;;5031859;28;20049;-77
2023/06/18 03:05:52;;;;;;;6.05;3.85;;;12.00;99.90;;;;;;5032791;28;20026;-77
2023/06/18 03:08:19;;;;;;;9.18;3.92;;;11.90;99.90;;;;;;5032024;28;20052;-76
2023/06/18 03:10:45;;;;;;;9.98;4.07;;;11.90;99.90;;;;;;5032011;28;20021;-77
2023/06/18 03:13:11;;;;;;;5.65;3.67;;;11.90;99.90;;;;;;5030891;28;20048;-77
2023/06/18 03:15:37;;;;;;;7.03;3.97;;;11.80;99.90;;;;;;5031414;28;20025;-77
2023/06/18 03:18:03;;;;;;;5.75;4.15;;;11.90;99.90;;;;;;5030803;28;20033;-77
2023/06/18 03:20:29;;;;;;;9.02;3.42;;;11.90;99.90;;;;;;5032754;28;20018;-77
2023/06/18 03:22:55;;;;;;;6.38;5.03;;;12.00;99.90;;;;;;5032575;28;20060;-77
2023/06/18 03:25:21;;;;;;;5.28;3.67;;;11.90;99.90;;;;;;5032790;28;20056;-76
2023/06/18 03:27:47;;;;;;;6.00;4.07;;;11.90;99.90;;;;;;5032382;28;20058;-76
2023/06/18 03:30:14;;;;;;;5.03;4.28;;;12.00;99.90;;;;;;5032174;28;20026;-76
2023/06/18 03:32:40;;;;;;;4.75;3.50;;;11.90;99.90;;;;;;5032204;28;20097;-77
2023/06/18 03:35:06;;;;;;;6.65;4.18;;;11.90;99.90;;;;;;5030716;28;20458;-77
2023/06/18 03:37:31;;;;;;;7.22;4.30;;;12.00;99.90;;;;;;5031860;28;20026;-77
2023/06/18 03:39:57;;;;;;;5.47;4.00;;;12.10;99.90;;;;;;5032568;28;20048;-77
2023/06/18 03:42:24;;;;;;;8.70;4.18;;;12.20;99.90;;;;;;5031809;28;20026;-76
2023/06/18 03:44:50;;;;;;;6.38;4.25;;;12.10;99.90;;;;;;5031521;28;20151;-77
2023/06/18 03:47:17;;;;;;;4.93;4.00;;;12.10;99.90;;;;;;5032072;28;20398;-77
2023/06/18 03:49:42;;;;;;;5.65;4.10;;;12.10;99.90;;;;;;5031982;28;20474;-77
2023/06/18 03:52:08;;;;;;;5.07;3.80;;;12.20;99.90;;;;;;5030827;28;20037;-77
2023/06/18 03:54:35;;;;;;;5.78;4.13;;;12.20;99.90;;;;;;5032418;28;20532;-77
2023/06/18 03:57:01;;;;;;;8.02;4.45;;;12.20;99.90;;;;;;5031554;28;20021;-77
2023/06/18 03:59:27;;;;;;;7.60;4.32;;;12.30;99.90;;;;;;5032327;28;20393;-77
2023/06/18 04:01:53;;;;;;;6.80;4.07;;;12.30;99.90;;;;;;5031818;28;20363;-77
2023/06/18 04:04:18;;;;;;;8.77;4.28;;;12.40;99.90;;;;;;5031343;28;20079;-77
2023/06/18 04:06:44;;;;;;;5.95;4.15;;;12.50;99.90;;;;;;5030084;28;20034;-76
2023/06/18 04:09:10;;;;;;;5.60;4.45;;;12.60;99.90;;;;;;5030142;28;20030;-75
2023/06/18 04:11:40;;;;;;;4.88;3.92;;;12.60;99.90;;;;;;5031152;28;20034;-77
2023/06/18 04:14:06;;;;;;;8.57;4.18;;;12.70;99.90;;;;;;5035068;28;20033;-76
2023/06/18 04:16:32;;;;;;;6.45;4.25;;;12.70;99.90;;;;;;5035182;28;20028;-77
2023/06/18 04:18:58;;;;;;;6.05;4.43;;;12.70;99.90;;;;;;5036675;28;20025;-77
2023/06/18 04:21:23;;;;;;;5.25;4.00;;;13.90;99.90;;;;;;5038158;28;20033;-78
2023/06/18 04:23:49;;;;;;;5.50;4.15;;;15.70;99.90;;;;;;5038046;28;20048;-77
2023/06/18 04:26:14;;;;;;;4.85;3.58;;;16.30;99.90;;;;;;5040016;28;20029;-78
2023/06/18 04:28:40;;;;;;;4.85;3.83;;;17.10;99.90;;;;;;5055193;28;20048;-77
2023/06/18 04:31:06;;;;;;;5.68;3.55;;;16.70;99.90;;;;;;5062546;28;20039;-79
2023/06/18 04:33:31;;;;;;;6.75;5.05;;;16.40;99.90;;;;;;5058198;28;20029;-77
2023/06/18 04:35:57;;;;;;;4.45;3.63;;;16.10;99.90;;;;;;5058069;28;20021;-77
2023/06/18 04:38:23;;;;;;;6.32;3.83;;;16.20;99.90;;;;;;5057538;28;20021;-77
2023/06/18 04:40:49;;;;;;;6.18;3.92;;;16.50;99.90;;;;;;5058070;28;20027;-77
2023/06/18 04:43:17;;;;;;;4.72;4.18;;;16.30;99.90;;;;;;5057383;28;20474;-77
2023/06/18 04:45:44;;;;;;;4.55;3.40;;;16.50;99.90;;;;;;5056011;28;20051;-78
2023/06/18 04:48:11;;;;;;;5.15;3.78;;;16.60;99.90;;;;;;5056439;28;20025;-78
2023/06/18 04:50:38;;;;;;;3.83;3.42;;;16.70;99.90;;;;;;5057665;28;20758;-78
2023/06/18 04:53:04;;;;;;;3.38;3.08;;;16.40;99.90;;;;;;5056178;28;20025;-78
2023/06/18 04:55:30;;;;;;;5.07;4.05;;;16.20;99.90;;;;;;5056728;28;20496;-78
2023/06/18 04:57:56;;;;;;;4.57;3.28;;;16.10;99.90;;;;;;5057143;28;20029;-77
2023/06/18 05:00:22;;;;;;;7.32;4.35;;;16.30;99.90;;;;;;5057092;28;20017;-77
2023/06/18 05:02:48;;;;;;;4.53;3.33;;;16.20;99.90;;;;;;5055882;28;20033;-77
2023/06/18 05:05:15;;;;;;;10.10;3.22;;;16.20;99.90;;;;;;5057215;28;20024;-78
2023/06/18 05:07:42;;;;;;;4.47;3.35;;;16.50;99.90;;;;;;5056978;28;20152;-78
2023/06/18 05:10:08;;;;;;;14.20;7.97;;;16.60;99.90;;;;;;5057276;28;20029;-77
2023/06/18 05:12:34;;;;;;;11.88;7.13;;;17.00;99.90;;;;;;5057218;28;20044;-77
2023/06/18 05:15:00;;;;;;;6.35;4.45;;;17.10;99.90;;;;;;5056832;28;20025;-78
2023/06/18 05:17:26;;;;;;;4.30;3.65;;;17.20;99.40;;;;;;5056952;28;20032;-76
2023/06/18 05:19:51;;;;;;;5.57;3.42;;;17.30;98.90;;;;;;5054002;28;20025;-77
2023/06/18 05:22:17;;;;;;;5.68;3.92;;;17.10;98.80;;;;;;5053766;28;20025;-77
2023/06/18 05:24:43;;;;;;;7.32;5.10;;;17.00;99.90;;;;;;5053828;28;20021;-75
2023/06/18 05:27:08;;;;;;;5.72;4.10;;;16.90;99.90;;;;;;5053919;28;20500;-77
2023/06/18 05:29:34;;;;;;;5.15;3.78;;;16.70;99.80;;;;;;5054516;28;20107;-77
2023/06/18 05:32:00;;;;;;;4.82;3.47;;;16.60;99.90;;;;;;5054600;28;20032;-77
2023/06/18 05:34:25;;;;;;;4.38;3.78;;;16.70;99.60;;;;;;5052886;28;20056;-76
2023/06/18 05:36:51;;;;;;;4.25;3.50;;;16.70;99.90;;;;;;5054404;28;20025;-76
2023/06/18 05:39:17;;;;;;;5.75;4.20;;;16.60;99.90;;;;;;5052457;28;20024;-76
2023/06/18 05:41:42;;;;;;;6.00;4.03;;;16.70;99.90;;;;;;5054020;28;20485;-75
2023/06/18 05:44:08;;;;;;;4.43;3.97;;;16.90;99.90;;;;;;5054692;28;20079;-76
2023/06/18 05:46:33;;;;;;;4.90;3.22;;;17.10;99.90;;;;;;5053430;28;20025;-74
2023/06/18 05:48:59;;;;;;;4.32;3.42;;;17.10;99.90;;;;;;5052055;28;20026;-75
2023/06/18 05:51:25;;;;;;;4.50;4.10;;;17.30;99.90;;;;;;5052229;28;20522;-74
2023/06/18 05:53:51;;;;;;;4.30;3.05;;;17.50;99.60;;;;;;5073843;22;20025;-76
2023/06/18 05:56:16;;;;;;;7.82;3.08;;;17.60;99.70;;;;;;4991882;28;20038;-74
2023/06/18 05:58:42;;;;;;;4.53;3.10;;;17.70;99.60;;;;;;4993561;28;20392;-73
2023/06/18 06:01:08;;;;;;;5.28;3.72;;;17.90;98.10;;;;;;4994215;28;20054;-73
2023/06/18 06:03:35;;;;;;;4.32;3.40;;;18.10;98.30;;;;;;4993130;28;20029;-74
2023/06/18 06:06:02;;;;;;;5.20;3.65;;;18.30;98.10;;;;;;4992473;28;20030;-74
2023/06/18 06:08:28;;;;;;;4.45;2.85;;;18.60;95.80;;;;;;4993421;28;20391;-74
2023/06/18 06:10:53;;;;;;;3.95;3.20;;;18.70;95.30;;;;;;4993700;28;20026;-74
2023/06/18 06:13:19;;;;;;;4.40;3.63;;;19.00;96.10;;;;;;4993556;28;20498;-74
2023/06/18 06:15:45;;;;;;;3.53;2.78;;;19.10;95.70;;;;;;4993182;28;20109;-75
2023/06/18 06:18:11;;;;;;;5.65;3.03;;;19.80;95.10;;;;;;4993410;28;20467;-74
2023/06/18 06:20:36;;;;;;;4.80;3.78;;;19.90;93.90;;;;;;4993637;28;20077;-74
2023/06/18 06:23:02;;;;;;;3.35;3.03;;;20.00;93.30;;;;;;4992618;28;20034;-74
2023/06/18 06:25:28;;;;;;;6.55;3.70;;;20.00;93.30;;;;;;4991913;28;20030;-74
2023/06/18 06:27:54;;;;;;;8.38;3.40;;;20.00;94.10;;;;;;4993316;28;20391;-74
2023/06/18 06:30:20;;;;;;;3.92;3.50;;;20.10;94.50;;;;;;4993240;28;20541;-75
2023/06/18 06:32:45;;;;;;;4.43;3.40;;;20.30;94.00;;;;;;4991884;28;20622;-75
2023/06/18 06:35:11;;;;;;;3.33;3.03;;;20.40;93.50;;;;;;4990918;28;20030;-74
2023/06/18 06:37:37;;;;;;;9.20;5.85;;;20.60;93.90;;;;;;4993043;28;20023;-74
2023/06/18 06:40:03;;;;;;;4.95;4.05;;;20.70;94.00;;;;;;4991809;28;20387;-75
2023/06/18 06:42:29;;;;;;;6.20;4.53;;;20.90;93.40;;;;;;4991903;28;20023;-74
2023/06/18 06:44:55;;;;;;;5.40;4.22;;;20.90;92.90;;;;;;4992904;28;20094;-74
2023/06/18 06:47:20;;;;;;;3.97;3.38;;;21.10;93.40;;;;;;4992805;28;20372;-74
2023/06/18 06:49:46;;;;;;;5.15;4.15;;;21.20;93.10;;;;;;4992930;28;20036;-74
2023/06/18 06:52:12;;;;;;;6.07;4.28;;;21.20;92.30;;;;;;4992961;28;20037;-74
2023/06/18 06:54:37;;;;;;;6.88;3.45;;;21.40;91.90;;;;;;4991254;28;20045;-74
2023/06/18 06:57:03;;;;;;;4.40;3.53;;;21.70;92.00;;;;;;4991883;28;20080;-74
2023/06/18 06:59:30;;;;;;;4.53;3.58;;;21.80;92.00;;;;;;4991429;28;20023;-74
2023/06/18 07:01:56;;;;;;;4.68;3.30;;;21.90;92.40;;;;;;4991548;28;20027;-74
2023/06/18 07:04:22;;;;;;;3.38;2.85;;;21.80;92.00;;;;;;4992719;28;20042;-74
2023/06/18 07:06:49;;;;;;;8.73;3.67;;;22.00;92.10;;;;;;4992602;28;20026;-74
2023/06/18 07:09:14;;;;;;;4.15;3.60;;;22.10;92.10;;;;;;4992545;28;20106;-75
2023/06/18 07:11:40;;;;;;;4.78;4.00;;;22.40;92.90;;;;;;4992682;28;20511;-74
2023/06/18 07:14:06;;;;;;;6.70;4.22;;;22.50;91.10;;;;;;4993332;28;20153;-79
2023/06/18 07:16:32;;;;;;;7.38;4.93;;;22.70;91.70;;;;;;4998541;28;20498;-76
2023/06/18 07:18:58;;;;;;;4.43;3.53;;;22.90;91.90;;;;;;4992795;28;20030;-75
2023/06/18 07:21:24;;;;;;;4.15;3.60;;;22.90;90.90;;;;;;4992475;28;20026;-75
2023/06/18 07:23:50;;;;;;;4.35;3.63;;;23.20;91.60;;;;;;4992419;28;20031;-74
2023/06/18 07:26:15;;;;;;;3.90;3.53;;;23.10;90.60;;;;;;4992137;28;20081;-75
2023/06/18 07:28:41;;;;;;;3.70;3.17;;;23.20;91.00;;;;;;4992455;28;20110;-75
2023/06/18 07:31:06;;;;;;;5.70;3.13;;;23.40;90.90;;;;;;4992487;28;20376;-75
2023/06/18 07:33:32;;;;;;;3.58;2.85;;;23.60;90.20;;;;;;4992333;28;20026;-75
2023/06/18 07:35:58;;;;;;;4.43;3.67;;;23.70;89.20;;;;;;4992237;28;20029;-74
2023/06/18 07:38:23;;;;;;;5.07;3.40;;;23.80;89.60;;;;;;4992288;28;20490;-74
2023/06/18 07:40:50;;;;;;;4.63;3.25;;;24.00;90.20;;;;;;4992320;28;20034;-74
2023/06/18 07:43:15;;;;;;;3.38;2.88;;;24.10;89.30;;;;;;4990970;28;20030;-75
2023/06/18 07:45:41;;;;;;;7.30;3.45;;;24.20;88.50;;;;;;4991252;28;20076;-75
2023/06/18 07:48:09;;;;;;;4.93;3.30;;;24.40;87.80;;;;;;4995888;28;20097;-74
2023/06/18 07:50:36;;;;;;;5.68;3.28;;;24.60;87.60;;;;;;4994998;28;20038;-75
2023/06/18 07:53:02;;;;;;;3.78;3.00;;;24.80;85.70;;;;;;4994852;28;20061;-75
2023/06/18 07:55:28;;;;;;;4.93;2.90;;;24.80;85.70;;;;;;4995208;28;20022;-74
2023/06/18 07:57:53;;;;;;;3.00;2.55;;;24.80;83.50;;;;;;4995950;28;20022;-75
2023/06/18 08:00:19;;;;;;;4.15;3.20;;;25.00;83.70;;;;;;4996201;28;20026;-74
2023/06/18 08:02:46;;;;;;;5.85;2.75;;;25.20;84.80;;;;;;4994712;28;20502;-75
2023/06/18 08:05:12;;;;;;;4.57;2.95;;;25.40;81.90;;;;;;4994762;28;20050;-75
2023/06/18 08:07:38;;;;;;;3.65;2.83;;;25.50;81.10;;;;;;4996050;28;20025;-74
2023/06/18 08:10:04;;;;;;;3.10;2.65;;;25.70;79.70;;;;;;4996064;28;20018;-75
2023/06/18 08:12:29;;;;;;;3.85;2.78;;;25.80;80.50;;;;;;4995983;28;20033;-74
2023/06/18 08:14:55;;;;;;;3.83;2.90;;;25.90;77.90;;;;;;4995542;28;20026;-74
2023/06/18 08:17:20;;;;;;;4.07;2.58;;;26.00;78.00;;;;;;4994352;28;20054;-74
2023/06/18 08:19:47;;;;;;;2.75;2.47;;;26.10;76.80;;;;;;4995770;28;20591;-75
2023/06/18 08:22:15;;;;;;;4.22;2.30;;;26.20;74.40;;;;;;4995603;28;20045;-74
2023/06/18 08:24:41;;;;;;;3.22;2.50;;;26.20;75.90;;;;;;4995377;28;20026;-74
2023/06/18 08:27:07;;;;;;;3.50;2.83;;;26.20;76.20;;;;;;4994995;28;20026;-74
2023/06/18 08:29:33;;;;;;;3.53;2.78;;;26.40;75.40;;;;;;4995413;28;20106;-74
2023/06/18 08:32:04;;;;;;;5.10;2.80;;;26.50;74.20;;;;;;4995428;28;20038;-74
2023/06/18 08:34:31;;;;;;;4.15;2.80;;;26.60;72.90;;;;;;4995024;28;20022;-74
2023/06/18 08:36:57;;;;;;;2.88;2.40;;;26.80;72.00;;;;;;4994219;28;20019;-74
2023/06/18 08:39:23;;;;;;;3.40;2.95;;;26.70;68.80;;;;;;4995188;28;20026;-74
2023/06/18 08:41:49;;;;;;;2.45;2.22;;;26.90;68.60;;;;;;4994801;28;20113;-74
2023/06/18 08:44:15;;;;;;;3.20;2.65;;;27.00;68.00;;;;;;4994527;28;20022;-75
2023/06/18 08:46:43;;;;;;;6.95;2.38;;;27.10;68.90;;;;;;4993266;28;20476;-74
2023/06/18 08:49:09;;;;;;;4.40;2.33;;;27.30;66.90;;;;;;4993419;28;20030;-75
2023/06/18 08:51:37;;;;;;;2.70;2.30;;;27.50;66.50;;;;;;4993807;28;20058;-75
2023/06/18 08:54:13;;;;;;;5.20;3.00;;;27.40;64.50;;;;;;4993094;28;20026;-75
2023/06/18 08:57:07;;;;;;;3.20;2.60;;;27.40;63.10;;;;;;4993436;28;20467;-75
2023/06/18 08:59:34;;;;;;;2.40;2.20;;;27.50;60.10;;;;;;4983860;28;20037;-75
2023/06/18 09:02:00;;;;;;;2.72;2.47;;;27.60;59.30;;;;;;4994718;28;20030;-76
2023/06/18 09:04:26;;;;;;;4.95;2.40;;;27.70;61.90;;;;;;4994826;28;20113;-75
2023/06/18 09:06:54;;;;;;;2.30;2.10;;;27.90;58.80;;;;;;4997451;28;20022;-76
2023/06/18 09:09:20;;;;;;;3.53;2.45;;;28.10;58.30;;;;;;4999406;28;20483;-75
2023/06/18 09:11:46;;;;;;;2.30;2.10;;;28.30;56.60;;;;;;4998676;28;20106;-75
2023/06/18 09:14:15;;;;;;;2.47;2.28;;;28.40;55.90;;;;;;4998986;28;20488;-75
2023/06/18 09:16:41;;;;;;;2.55;2.20;;;28.40;56.00;;;;;;4999761;28;20031;-75
2023/06/18 09:19:07;;;;;;;6.75;2.30;;;28.40;57.10;;;;;;5000418;28;20022;-75
2023/06/18 09:21:36;;;;;;;2.63;2.42;;;28.50;51.10;;;;;;5001175;28;20438;-75
2023/06/18 09:24:03;;;;;;;3.33;2.38;;;28.60;53.80;;;;;;5000560;28;20062;-75
2023/06/18 09:26:33;;;;;;;2.95;2.53;;;28.70;53.50;;;;;;4999891;28;20034;-75
2023/06/18 09:29:03;;;;;;;2.33;2.13;;;28.70;52.80;;;;;;4997793;28;20514;-75
2023/06/18 09:31:28;;;;;;;4.55;2.60;;;28.80;48.60;;;;;;4998721;28;20213;-75
2023/06/18 09:33:54;;;;;;;2.53;2.28;;;29.00;48.00;;;;;;5001090;28;20038;-75
2023/06/18 09:36:19;;;;;;;2.85;2.65;;;29.10;49.90;;;;;;5000756;28;20026;-75
2023/06/18 09:38:45;;;;;;;2.28;2.00;;;29.20;47.70;;;;;;5002408;28;20032;-75
2023/06/18 09:41:18;;;;;;;2.55;2.35;;;29.50;48.90;;;;;;5001800;28;20023;-75
2023/06/18 09:43:47;;;;;;;2.28;2.05;;;29.60;42.40;;;;;;4999795;28;20027;-75
2023/06/18 09:46:14;;;;;;;3.50;2.15;;;29.60;49.40;;;;;;4999773;28;20026;-75
2023/06/18 09:48:45;;;;;;;4.70;1.73;;;29.30;48.40;;;;;;4999580;28;20026;-75
2023/06/18 09:51:13;;;;;;;2.63;2.42;;;29.20;45.10;;;;;;4999039;28;20026;-74
2023/06/18 09:53:38;;;;;;;2.47;2.05;;;29.40;43.40;;;;;;4995486;28;20376;-75
2023/06/18 09:56:15;;;;;;;2.58;2.30;;;29.50;42.20;;;;;;4994472;28;20546;-75
2023/06/18 09:58:43;;;;;;;3.35;1.98;;;29.60;40.10;;;;;;4994221;28;20026;-75
2023/06/18 10:01:09;;;;;;;2.95;2.60;;;29.50;38.90;;;;;;4993923;28;20417;-75
2023/06/18 10:03:35;;;;;;;2.40;2.20;;;29.40;38.70;;;;;;4994109;28;20085;-75
2023/06/18 10:06:22;;;;;;;2.53;2.33;;;29.30;37.50;;;;;;4993693;28;20030;-75
2023/06/18 10:08:50;;;;;;;5.03;2.20;;;29.30;38.70;;;;;;4992478;28;20033;-75
2023/06/18 10:11:18;;;;;;;6.20;2.22;;;29.40;40.00;;;;;;4993735;28;20505;-75
2023/06/18 10:13:50;;;;;;;4.57;2.55;;;29.20;38.90;;;;;;4992207;28;20391;-75
2023/06/18 10:16:17;;;;;;;2.70;2.47;;;29.40;39.30;;;;;;4992484;28;20427;-75
2023/06/18 10:19:03;;;;;;;2.63;2.42;;;29.20;39.80;;;;;;4993527;28;20046;-75
2023/06/18 10:21:33;;;;;;;2.80;2.55;;;29.20;39.50;;;;;;4992399;28;20093;-75
2023/06/18 10:24:08;;;;;;;3.60;2.67;;;29.20;39.80;;;;;;4993766;28;20023;-75
2023/06/18 10:26:36;;;;;;;2.78;2.40;;;29.10;38.30;;;;;;4993476;28;20042;-75
2023/06/18 10:29:03;;;;;;;2.70;2.33;;;29.20;39.80;;;;;;4991956;28;20027;-75
2023/06/18 10:31:30;;;;;;;2.60;2.38;;;29.10;38.50;;;;;;4993448;28;20034;-75
2023/06/18 10:33:57;;;;;;;3.25;2.95;;;29.00;38.60;;;;;;4993204;28;20047;-75
2023/06/18 10:36:23;;;;;;;2.53;2.15;;;28.90;37.70;;;;;;4993272;28;20023;-75
2023/06/18 10:38:50;;;;;;;3.22;2.40;;;28.50;37.90;;;;;;4991914;28;20023;-75
2023/06/18 10:41:20;;;;;;;2.85;2.22;;;28.80;37.90;;;;;;4993142;28;20101;-75
2023/06/18 10:43:53;;;;;;;3.70;2.28;;;29.20;39.80;;;;;;4993038;28;20492;-75
2023/06/18 10:46:20;;;;;;;2.03;1.83;;;29.40;39.20;;;;;;4992962;28;20480;-75
2023/06/18 10:49:13;;;;;;;4.25;2.40;;;29.40;38.60;;;;;;4991848;28;20093;-75
2023/06/18 10:51:38;;;;;;;2.38;2.00;;;29.30;38.00;;;;;;4991751;28;20026;-75
2023/06/18 10:54:21;;;;;;;3.95;2.28;;;29.30;39.10;;;;;;4992677;28;20031;-75
2023/06/18 10:56:51;;;;;;;3.42;2.50;;;29.10;39.30;;;;;;4992779;28;20053;-75
2023/06/18 10:59:32;;;;;;;2.72;2.53;;;29.40;39.10;;;;;;4992766;28;20037;-75
2023/06/18 11:01:59;;;;;;;2.88;2.53;;;29.40;39.60;;;;;;4992724;28;20297;-75
2023/06/18 11:04:30;;;;;;;3.03;2.28;;;29.70;39.30;;;;;;4992630;28;20027;-75
2023/06/18 11:07:17;;;;;;;4.93;2.35;;;30.00;41.00;;;;;;4992808;28;20018;-75
2023/06/18 11:10:01;;;;;;;4.05;2.70;;;30.00;40.90;;;;;;4992839;28;20030;-75
2023/06/18 11:12:33;;;;;;;4.47;2.65;;;30.10;40.30;;;;;;4993091;28;20022;-75
2023/06/18 11:15:20;;;;;;;5.82;3.60;;;30.30;41.10;;;;;;4992310;28;20390;-75
2023/06/18 11:17:50;;;;;;;4.20;2.53;;;30.60;39.90;;;;;;4992536;28;20023;-76
2023/06/18 11:20:18;;;;;;;3.50;2.92;;;30.70;41.90;;;;;;4991087;28;20027;-75
2023/06/18 11:22:44;;;;;;;3.05;2.30;;;30.80;41.30;;;;;;4992603;28;20068;-75
2023/06/18 11:25:11;;;;;;;3.05;2.75;;;30.60;41.20;;;;;;4991024;28;20540;-76
2023/06/18 11:27:42;;;;;;;2.85;2.50;;;30.70;41.50;;;;;;4992161;28;20538;-75
2023/06/18 11:30:10;;;;;;;3.78;2.78;;;30.60;39.30;;;;;;4992835;28;20440;-75
2023/06/18 11:32:36;;;;;;;2.95;2.33;;;30.50;38.60;;;;;;4992567;28;20036;-75
2023/06/18 11:35:01;;;;;;;3.55;2.60;;;30.30;39.30;;;;;;4992251;28;20077;-75
2023/06/18 11:37:30;;;;;;;4.00;2.90;;;30.20;40.90;;;;;;4991103;28;20026;-75
2023/06/18 11:39:56;;;;;;;3.28;2.38;;;29.80;41.50;;;;;;4992528;28;20101;-75
2023/06/18 11:42:26;;;;;;;3.83;2.55;;;29.90;40.80;;;;;;4992206;28;20022;-75
2023/06/18 11:44:58;;;;;;;3.58;2.08;;;29.80;39.20;;;;;;4992215;28;20137;-76
2023/06/18 11:47:24;;;;;;;3.60;2.80;;;29.80;38.50;;;;;;4992217;28;20026;-75
2023/06/18 11:49:51;;;;;;;7.65;3.10;;;29.90;38.80;;;;;;4992200;28;20145;-75
2023/06/18 11:52:21;;;;;;;2.63;2.40;;;30.20;39.10;;;;;;4992371;28;20105;-75
2023/06/18 11:54:48;;;;;;;7.03;2.70;;;30.40;39.60;;;;;;5013479;23;20054;-77
2023/06/18 11:57:16;;;;;;;5.70;2.53;;;29.80;41.00;;;;;;4999014;28;20029;-74
2023/06/18 11:59:43;;;;;;;4.55;2.53;;;29.60;42.00;;;;;;5001780;28;20086;-75
2023/06/18 12:02:37;;;;;;;4.55;2.80;;;29.60;42.30;;;;;;5001622;28;20082;-75
2023/06/18 12:05:04;;;;;;;4.70;2.50;;;29.70;42.30;;;;;;5007706;28;20041;-76
2023/06/18 12:07:31;;;;;;;3.35;2.33;;;29.40;41.60;;;;;;5013546;28;20041;-77
2023/06/18 12:10:03;;;;;;;2.83;2.22;;;29.20;42.60;;;;;;5010920;28;20087;-77
2023/06/18 12:12:37;;;;;;;3.90;2.80;;;29.30;43.00;;;;;;5011730;28;20026;-75
2023/06/18 12:15:12;;;;;;;4.70;2.97;;;29.60;42.60;;;;;;5011652;28;20105;-76
2023/06/18 12:17:46;;;;;;;4.25;2.90;;;29.60;42.60;;;;;;5011150;28;20022;-76
2023/06/18 12:20:13;;;;;;;2.70;2.30;;;29.40;41.50;;;;;;5011827;28;20026;-77
2023/06/18 12:22:39;;;;;;;3.03;2.33;;;29.10;43.10;;;;;;5011635;28;20029;-77
2023/06/18 12:25:07;;;;;;;2.60;2.17;;;28.80;42.60;;;;;;5012934;28;20026;-76
2023/06/18 12:27:34;;;;;;;2.80;2.50;;;28.80;43.30;;;;;;5010530;28;20026;-76
2023/06/18 12:30:05;;;;;;;2.92;2.60;;;29.00;44.90;;;;;;5010480;28;20120;-75
2023/06/18 12:32:36;;;;;;;5.30;2.90;;;29.10;45.30;;;;;;5012413;28;20034;-77
2023/06/18 12:35:19;;;;;;;2.92;2.58;;;29.20;45.80;;;;;;5015228;28;20117;-76
2023/06/18 12:37:47;;;;;;;4.10;3.05;;;29.30;45.10;;;;;;5014054;28;20434;-76
2023/06/18 12:40:18;;;;;;;4.70;2.47;;;29.40;44.60;;;;;;5014083;28;20122;-77
2023/06/18 12:42:45;;;;;;;3.70;3.00;;;29.20;45.40;;;;;;5020348;28;20064;-77
2023/06/18 12:45:12;;;;;;;2.60;2.22;;;28.80;46.80;;;;;;5016574;28;20033;-75
2023/06/18 12:47:42;;;;;;;3.13;2.42;;;28.70;45.50;;;;;;5019974;28;20045;-77